createdAt,value
2023-01-19T00:01:44.432Z,139.45
2023-01-19T00:04:12.354Z,138.23
2023-01-19T00:06:40.709Z,137.27
2023-01-19T00:09:08.524Z,135.90
2023-01-19T00:11:37.028Z,129.75
2023-01-19T00:14:05.509Z,142.00
2023-01-19T00:16:33.882Z,138.40
2023-01-19T00:19:01.826Z,142.10
2023-01-19T00:21:30.092Z,141.35
2023-01-19T00:23:57.961Z,141.63
2023-01-19T00:26:26.591Z,133.77
2023-01-19T00:28:54.343Z,136.05
2023-01-19T00:31:23.510Z,142.20
2023-01-19T00:33:53.038Z,145.15
2023-01-19T00:36:22.569Z,139.40
2023-01-19T00:38:50.975Z,142.60
2023-01-19T00:41:19.698Z,133.98
2023-01-19T00:43:47.452Z,136.93
2023-01-19T00:46:15.970Z,134.52
2023-01-19T00:48:44.039Z,132.40
2023-01-19T00:51:12.346Z,139.38
2023-01-19T00:53:40.170Z,133.43
2023-01-19T00:56:08.646Z,137.10
2023-01-19T00:58:36.545Z,140.85
2023-01-19T01:01:06.333Z,141.65
2023-01-19T01:03:34.599Z,139.30
2023-01-19T01:06:03.936Z,132.65
2023-01-19T01:08:32.299Z,134.32
2023-01-19T01:11:00.225Z,142.77
2023-01-19T01:13:28.941Z,146.77
2023-01-19T01:15:57.491Z,135.18
2023-01-19T01:18:26.557Z,135.35
2023-01-19T01:21:01.989Z,132.05
2023-01-19T01:23:30.377Z,124.75
2023-01-19T01:25:58.316Z,134.80
2023-01-19T01:28:27.409Z,134.45
2023-01-19T01:30:56.788Z,138.13
2023-01-19T01:33:40.718Z,135.48
2023-01-19T01:36:12.046Z,135.57
2023-01-19T01:38:41.807Z,139.25
2023-01-19T01:41:10.225Z,137.20
2023-01-19T01:43:44.769Z,136.48
2023-01-19T01:46:15.818Z,124.65
2023-01-19T01:48:50.395Z,125.40
2023-01-19T01:51:38.169Z,133.50
2023-01-19T01:54:09.561Z,130.00
2023-01-19T01:56:44.389Z,124.40
2023-01-19T01:59:26.244Z,129.68
2023-01-19T02:02:16.017Z,132.02
2023-01-19T02:04:58.956Z,118.55
2023-01-19T02:07:57.085Z,131.05
2023-01-19T02:10:44.267Z,131.85
2023-01-19T02:13:22.730Z,136.00
2023-01-19T02:15:56.504Z,114.57
2023-01-19T02:18:28.773Z,121.32
2023-01-19T02:21:00.643Z,118.35
2023-01-19T02:23:38.321Z,115.82
2023-01-19T02:26:09.981Z,108.60
2023-01-19T02:28:45.349Z,111.03
2023-01-19T02:31:15.441Z,113.88
2023-01-19T02:33:43.797Z,107.88
2023-01-19T02:36:15.551Z,113.50
2023-01-19T02:38:47.392Z,106.15
2023-01-19T02:41:20.647Z,107.25
2023-01-19T02:43:50.250Z,106.03
2023-01-19T02:46:18.731Z,98.28
2023-01-19T02:48:47.082Z,107.53
2023-01-19T02:51:21.635Z,101.88
2023-01-19T02:53:58.530Z,96.57
2023-01-19T02:56:50.905Z,98.03
2023-01-19T02:59:30.907Z,100.32
2023-01-19T03:02:29.844Z,97.53
2023-01-19T03:05:31.808Z,100.40
2023-01-19T03:08:34.835Z,94.82
2023-01-19T03:11:05.967Z,98.32
2023-01-19T03:13:46.263Z,98.07
2023-01-19T03:16:22.916Z,96.53
2023-01-19T03:18:59.050Z,91.80
2023-01-19T03:21:29.284Z,95.15
2023-01-19T03:24:03.373Z,88.75
2023-01-19T03:26:36.892Z,95.82
2023-01-19T03:29:07.671Z,90.93
2023-01-19T03:31:37.885Z,93.75
2023-01-19T03:34:11.072Z,90.68
2023-01-19T03:36:46.524Z,100.00
2023-01-19T03:39:21.945Z,96.70
2023-01-19T03:41:54.797Z,102.43
2023-01-19T03:44:26.426Z,103.50
2023-01-19T03:46:57.231Z,100.25
2023-01-19T03:49:26.214Z,98.63
2023-01-19T03:51:57.358Z,94.55
2023-01-19T03:54:26.103Z,98.97
2023-01-19T03:56:54.392Z,90.75
2023-01-19T03:59:22.739Z,97.03
2023-01-19T04:01:50.684Z,99.88
2023-01-19T04:04:19.067Z,96.57
2023-01-19T04:06:47.030Z,109.78
2023-01-19T04:09:15.464Z,107.55
2023-01-19T04:11:43.442Z,94.22
2023-01-19T04:14:11.734Z,97.88
2023-01-19T04:16:39.628Z,98.30
2023-01-19T04:19:07.794Z,102.05
2023-01-19T04:21:36.264Z,106.28
2023-01-19T04:24:04.897Z,103.47
2023-01-19T04:26:32.709Z,103.65
2023-01-19T04:29:01.088Z,105.47
2023-01-19T04:31:29.236Z,108.05
2023-01-19T04:33:57.875Z,92.18
2023-01-19T04:36:25.759Z,92.43
2023-01-19T04:38:54.536Z,97.28
2023-01-19T04:41:22.358Z,101.72
2023-01-19T04:43:52.160Z,100.82
2023-01-19T04:46:20.273Z,107.30
2023-01-19T04:48:48.517Z,98.47
2023-01-19T04:51:16.530Z,92.45
2023-01-19T04:53:44.844Z,94.82
2023-01-19T04:56:12.786Z,95.07
2023-01-19T04:58:43.779Z,100.18
2023-01-19T05:01:11.747Z,96.90
2023-01-19T05:03:41.321Z,113.22
2023-01-19T05:06:09.308Z,94.95
2023-01-19T05:08:37.804Z,96.68
2023-01-19T05:11:06.079Z,92.97
2023-01-19T05:13:35.737Z,95.97
2023-01-19T05:16:04.074Z,95.85
2023-01-19T05:18:36.334Z,89.82
2023-01-19T05:21:05.017Z,91.78
2023-01-19T05:23:33.919Z,86.47
2023-01-19T05:26:03.534Z,89.80
2023-01-19T05:28:33.642Z,85.95
2023-01-19T05:31:01.867Z,83.35
2023-01-19T05:33:30.654Z,86.78
2023-01-19T05:35:58.844Z,84.65
2023-01-19T05:38:35.314Z,85.88
2023-01-19T05:41:04.224Z,96.50
2023-01-19T05:43:32.411Z,96.60
2023-01-19T05:46:00.675Z,89.93
2023-01-19T05:48:28.857Z,90.03
2023-01-19T05:51:00.491Z,92.45
2023-01-19T05:53:29.209Z,92.82
2023-01-19T05:56:05.877Z,92.03
2023-01-19T05:58:35.735Z,89.25
2023-01-19T06:01:05.930Z,89.40
2023-01-19T06:03:35.904Z,94.43
2023-01-19T06:06:04.416Z,94.97
2023-01-19T06:08:33.183Z,96.80
2023-01-19T06:11:01.135Z,107.00
2023-01-19T06:13:29.372Z,99.43
2023-01-19T06:16:00.404Z,101.82
2023-01-19T06:18:29.619Z,108.03
2023-01-19T06:21:00.094Z,96.25
2023-01-19T06:23:31.479Z,97.80
2023-01-19T06:25:59.581Z,106.47
2023-01-19T06:28:28.491Z,99.70
2023-01-19T06:30:57.490Z,105.82
2023-01-19T06:33:27.856Z,109.82
2023-01-19T06:35:56.948Z,111.70
2023-01-19T06:38:25.529Z,111.05
2023-01-19T06:40:58.763Z,114.68
2023-01-19T06:43:27.635Z,119.20
2023-01-19T06:45:56.519Z,118.18
2023-01-19T06:48:25.199Z,120.85
2023-01-19T06:50:53.059Z,121.28
2023-01-19T06:53:22.697Z,118.85
2023-01-19T06:55:50.911Z,119.30
2023-01-19T06:58:19.835Z,126.20
2023-01-19T07:00:47.686Z,115.22
2023-01-19T07:03:20.874Z,130.18
2023-01-19T07:05:54.464Z,120.97
2023-01-19T07:08:23.751Z,125.28
2023-01-19T07:11:26.361Z,126.25
2023-01-19T07:13:41.505Z,123.85
2023-01-19T07:16:12.246Z,130.05
2023-01-19T07:18:41.584Z,124.90
2023-01-19T07:21:09.848Z,127.35
2023-01-19T07:23:38.908Z,128.98
2023-01-19T07:26:06.881Z,128.52
2023-01-19T07:28:35.429Z,115.85
2023-01-19T07:31:03.968Z,125.18
2023-01-19T07:33:32.264Z,127.80
2023-01-19T07:36:00.435Z,127.20
2023-01-19T07:38:28.729Z,133.45
2023-01-19T07:41:07.718Z,131.60
2023-01-19T07:43:36.204Z,126.53
2023-01-19T07:46:06.557Z,126.60
2023-01-19T07:48:35.448Z,129.30
2023-01-19T07:51:18.327Z,127.63
2023-01-19T07:53:46.849Z,132.85
2023-01-19T07:56:14.963Z,136.32
2023-01-19T07:58:43.384Z,124.65
2023-01-19T08:01:13.399Z,124.45
2023-01-19T08:03:42.744Z,123.75
2023-01-19T08:06:24.108Z,122.45
2023-01-19T08:08:53.207Z,125.70
2023-01-19T08:11:21.097Z,126.20
2023-01-19T08:13:49.545Z,124.47
2023-01-19T08:16:17.539Z,132.88
2023-01-19T08:18:46.443Z,130.15
2023-01-19T08:21:15.362Z,124.07
2023-01-19T08:23:43.953Z,128.10
2023-01-19T08:26:27.628Z,125.68
2023-01-19T08:28:58.140Z,131.23
2023-01-19T08:31:26.939Z,127.35
2023-01-19T08:33:55.383Z,137.70
2023-01-19T08:36:25.439Z,131.02
2023-01-19T08:38:53.830Z,127.82
2023-01-19T08:41:22.603Z,125.88
2023-01-19T08:43:51.137Z,126.78
2023-01-19T08:46:21.566Z,121.18
2023-01-19T08:48:50.972Z,116.03
2023-01-19T08:51:19.795Z,129.35
2023-01-19T08:53:48.061Z,117.53
2023-01-19T08:56:16.337Z,120.32
2023-01-19T08:58:51.200Z,112.53
2023-01-19T09:01:24.515Z,110.88
2023-01-19T09:03:53.738Z,110.32
2023-01-19T09:06:21.704Z,114.22
2023-01-19T09:08:50.250Z,112.72
2023-01-19T09:11:19.009Z,118.28
2023-01-19T09:13:47.229Z,109.55
2023-01-19T09:16:16.220Z,110.57
2023-01-19T09:18:46.236Z,115.65
2023-01-19T09:21:15.337Z,115.03
2023-01-19T09:23:43.769Z,109.45
2023-01-19T09:26:12.119Z,97.75
2023-01-19T09:28:40.331Z,107.18
2023-01-19T09:31:09.459Z,97.80
2023-01-19T09:33:37.997Z,98.75
2023-01-19T09:36:06.449Z,98.55
2023-01-19T09:38:34.926Z,99.20
2023-01-19T09:41:04.585Z,104.57
2023-01-19T09:43:43.315Z,99.07
2023-01-19T09:46:14.566Z,101.97
2023-01-19T09:48:53.314Z,108.72
2023-01-19T09:51:28.789Z,109.68
2023-01-19T09:54:21.128Z,106.60
2023-01-19T09:56:52.419Z,102.60
2023-01-19T09:59:28.681Z,104.07
2023-01-19T10:02:20.894Z,100.90
2023-01-19T10:05:04.584Z,104.90
2023-01-19T10:07:55.680Z,108.95
2023-01-19T10:10:29.075Z,98.40
2023-01-19T10:13:26.118Z,93.97
2023-01-19T10:16:31.869Z,102.50
2023-01-19T10:19:23.855Z,97.93
2023-01-19T10:21:56.130Z,100.18
2023-01-19T10:24:38.946Z,104.00
2023-01-19T10:27:18.617Z,99.13
2023-01-19T10:29:47.053Z,98.72
2023-01-19T10:32:22.492Z,103.07
2023-01-19T10:34:51.115Z,108.30
2023-01-19T10:37:25.246Z,115.22
2023-01-19T10:39:56.249Z,109.10
2023-01-19T10:42:29.590Z,118.25
2023-01-19T10:44:58.946Z,117.38
2023-01-19T10:47:39.978Z,110.90
2023-01-19T10:50:23.606Z,122.55
2023-01-19T10:52:54.842Z,124.65
2023-01-19T10:55:32.185Z,145.98
2023-01-19T10:58:00.803Z,147.18
2023-01-19T11:00:38.192Z,141.77
2023-01-19T11:03:29.496Z,146.93
2023-01-19T11:06:19.406Z,159.50
2023-01-19T11:08:51.647Z,154.50
2023-01-19T11:11:21.568Z,150.10
2023-01-19T11:14:11.510Z,153.35
2023-01-19T11:16:40.380Z,152.70
2023-01-19T11:19:20.286Z,146.55
2023-01-19T11:21:48.338Z,129.60
2023-01-19T11:24:17.176Z,126.32
2023-01-19T11:26:48.528Z,124.30
2023-01-19T11:29:23.833Z,125.07
2023-01-19T11:31:53.685Z,121.40
2023-01-19T11:34:40.108Z,113.97
2023-01-19T11:37:31.919Z,115.93
2023-01-19T11:40:04.470Z,115.35
2023-01-19T11:42:34.688Z,120.35
2023-01-19T11:45:23.526Z,121.32
2023-01-19T11:47:52.924Z,133.82
2023-01-19T11:50:32.269Z,127.07
2023-01-19T11:53:07.813Z,136.65
2023-01-19T11:56:01.104Z,135.60
2023-01-19T11:58:30.658Z,138.77
2023-01-19T12:01:14.748Z,132.30
2023-01-19T12:04:06.128Z,133.45
2023-01-19T12:06:48.067Z,137.30
2023-01-19T12:09:24.649Z,137.45
2023-01-19T12:11:56.131Z,142.55
2023-01-19T12:14:32.297Z,142.70
2023-01-19T12:17:04.695Z,140.13
2023-01-19T12:19:56.515Z,141.35
2023-01-19T12:22:28.889Z,146.25
2023-01-19T12:25:06.381Z,144.05
2023-01-19T12:27:34.604Z,142.43
2023-01-19T12:30:06.429Z,149.23
2023-01-19T12:32:37.275Z,154.95
2023-01-19T12:35:05.826Z,150.98
2023-01-19T12:37:41.958Z,146.05
2023-01-19T12:40:37.825Z,155.65
2023-01-19T12:43:06.460Z,151.13
2023-01-19T12:45:36.596Z,140.93
2023-01-19T12:48:05.724Z,146.25
2023-01-19T12:50:38.125Z,139.95
2023-01-19T12:53:19.383Z,146.00
2023-01-19T12:56:00.317Z,141.20
2023-01-19T12:58:29.207Z,147.82
2023-01-19T13:01:21.406Z,152.05
2023-01-19T13:04:09.746Z,139.27
2023-01-19T13:06:49.941Z,142.38
2023-01-19T13:09:33.406Z,143.65
2023-01-19T13:12:19.614Z,144.68
2023-01-19T13:14:48.481Z,141.23
2023-01-19T13:17:32.178Z,147.40
2023-01-19T13:20:25.074Z,138.98
2023-01-19T13:23:09.773Z,133.15
2023-01-19T13:25:43.945Z,137.98
2023-01-19T13:28:16.639Z,146.80
2023-01-19T13:30:58.480Z,136.43
2023-01-19T13:33:30.489Z,137.77
2023-01-19T13:35:59.465Z,139.07
2023-01-19T13:38:29.016Z,137.52
2023-01-19T13:41:02.121Z,141.68
2023-01-19T13:43:38.097Z,135.73
2023-01-19T13:46:07.017Z,144.30
2023-01-19T13:48:34.980Z,142.02
2023-01-19T13:51:17.741Z,146.00
2023-01-19T13:53:59.135Z,139.15
2023-01-19T13:56:29.959Z,138.70
2023-01-19T13:59:12.129Z,139.30
2023-01-19T14:01:44.166Z,136.65
2023-01-19T14:04:29.037Z,133.27
2023-01-19T14:07:01.313Z,139.27
2023-01-19T14:09:30.743Z,121.97
2023-01-19T14:12:14.399Z,140.32
2023-01-19T14:14:49.890Z,141.63
2023-01-19T14:17:27.528Z,139.18
2023-01-19T14:19:57.586Z,140.48
2023-01-19T14:22:44.693Z,135.73
2023-01-19T14:25:28.282Z,146.45
2023-01-19T14:28:29.275Z,142.23
2023-01-19T14:31:17.465Z,143.85
2023-01-19T14:33:51.412Z,155.25
2023-01-19T14:36:34.437Z,140.80
2023-01-19T14:39:04.237Z,145.30
2023-01-19T14:41:53.277Z,142.68
2023-01-19T14:44:34.288Z,150.00
2023-01-19T14:47:03.618Z,145.65
2023-01-19T14:49:38.720Z,143.57
2023-01-19T14:52:23.682Z,140.05
2023-01-19T14:54:54.873Z,148.02
2023-01-19T14:57:22.993Z,143.27
2023-01-19T14:59:51.276Z,145.73
2023-01-19T15:02:19.797Z,156.18
2023-01-19T15:04:48.497Z,149.88
2023-01-19T15:07:20.301Z,156.18
2023-01-19T15:09:48.874Z,156.77
2023-01-19T15:12:18.842Z,152.82
2023-01-19T15:14:47.251Z,151.70
2023-01-19T15:17:25.910Z,157.38
2023-01-19T15:19:56.599Z,149.55
2023-01-19T15:22:30.418Z,152.02
2023-01-19T15:25:01.887Z,152.10
2023-01-19T15:27:30.847Z,154.38
2023-01-19T15:30:00.012Z,154.25
2023-01-19T15:32:28.104Z,149.88
2023-01-19T15:34:57.717Z,153.63
2023-01-19T15:37:25.747Z,146.15
2023-01-19T15:39:53.989Z,156.35
2023-01-19T15:42:21.927Z,142.77
2023-01-19T15:44:50.949Z,146.95
2023-01-19T15:47:18.884Z,144.43
2023-01-19T15:49:47.116Z,144.65
2023-01-19T15:52:17.027Z,147.40
2023-01-19T15:54:45.418Z,139.48
2023-01-19T15:57:13.253Z,142.02
2023-01-19T15:59:41.469Z,139.15
2023-01-19T16:02:10.127Z,143.48
2023-01-19T16:04:38.674Z,141.10
2023-01-19T16:07:06.516Z,155.68
2023-01-19T16:09:34.867Z,145.10
2023-01-19T16:12:02.717Z,144.95
2023-01-19T16:14:31.067Z,149.82
2023-01-19T16:17:00.381Z,141.73
2023-01-19T16:19:29.757Z,156.43
2023-01-19T16:21:57.856Z,158.45
2023-01-19T16:24:26.667Z,150.95
2023-01-19T16:26:54.832Z,153.88
2023-01-19T16:29:23.093Z,150.13
2023-01-19T16:31:52.095Z,153.00
2023-01-19T16:34:20.316Z,155.93
2023-01-19T16:36:49.289Z,158.63
2023-01-19T16:39:17.959Z,164.98
2023-01-19T16:41:46.297Z,156.73
2023-01-19T16:44:16.227Z,158.48
2023-01-19T16:46:46.249Z,153.00
2023-01-19T16:49:17.882Z,158.50
2023-01-19T16:51:46.309Z,151.57
2023-01-19T16:54:16.857Z,153.02
2023-01-19T16:56:44.857Z,155.95
2023-01-19T16:59:15.329Z,146.38
2023-01-19T17:01:45.525Z,161.00
2023-01-19T17:04:15.099Z,151.05
2023-01-19T17:06:43.419Z,147.65
2023-01-19T17:09:11.661Z,148.98
2023-01-19T17:11:43.012Z,149.77
2023-01-19T17:14:20.552Z,151.95
2023-01-19T17:16:49.646Z,152.07
2023-01-19T17:19:19.778Z,155.23
2023-01-19T17:21:50.697Z,145.40
2023-01-19T17:24:19.610Z,143.50
2023-01-19T17:26:49.031Z,151.10
2023-01-19T17:29:17.898Z,151.15
2023-01-19T17:31:47.038Z,140.85
2023-01-19T17:34:15.429Z,148.38
2023-01-19T17:36:43.573Z,135.18
2023-01-19T17:39:15.123Z,142.82
2023-01-19T17:41:43.354Z,137.73
2023-01-19T17:44:11.637Z,141.07
2023-01-19T17:46:40.082Z,139.73
2023-01-19T17:49:09.138Z,137.75
2023-01-19T17:51:37.432Z,146.27
2023-01-19T17:54:05.985Z,146.48
2023-01-19T17:56:37.881Z,144.70
2023-01-19T17:59:08.275Z,142.45
2023-01-19T18:01:40.262Z,133.50
2023-01-19T18:04:09.696Z,141.73
2023-01-19T18:06:38.752Z,146.90
2023-01-19T18:09:07.777Z,141.95
2023-01-19T18:11:36.089Z,137.25
2023-01-19T18:14:05.637Z,143.73
2023-01-19T18:16:33.623Z,142.95
2023-01-19T18:19:01.975Z,149.93
2023-01-19T18:21:30.707Z,150.05
2023-01-19T18:24:02.524Z,158.32
2023-01-19T18:26:31.832Z,149.02
2023-01-19T18:29:00.999Z,154.23
2023-01-19T18:31:29.818Z,144.23
2023-01-19T18:33:58.061Z,142.60
2023-01-19T18:36:26.121Z,138.73
2023-01-19T18:38:54.528Z,142.40
2023-01-19T18:41:22.586Z,155.85
2023-01-19T18:43:52.228Z,144.52
2023-01-19T18:46:21.520Z,146.68
2023-01-19T18:48:49.916Z,138.38
2023-01-19T18:51:19.453Z,141.27
2023-01-19T18:53:48.057Z,130.13
2023-01-19T18:56:16.641Z,135.93
2023-01-19T18:58:45.113Z,137.25
2023-01-19T19:01:36.841Z,136.15
2023-01-19T19:04:05.391Z,148.65
2023-01-19T19:06:33.514Z,147.35
2023-01-19T19:09:01.754Z,140.05
2023-01-19T19:11:29.652Z,138.15
2023-01-19T19:14:00.909Z,141.20
2023-01-19T19:16:30.262Z,143.55
2023-01-19T19:18:59.764Z,143.30
2023-01-19T19:21:28.066Z,137.07
2023-01-19T19:23:58.002Z,140.20
2023-01-19T19:26:28.392Z,141.93
2023-01-19T19:28:57.331Z,146.45
2023-01-19T19:31:27.851Z,143.80
2023-01-19T19:33:57.591Z,146.32
2023-01-19T19:36:27.296Z,150.27
2023-01-19T19:38:56.102Z,145.40
2023-01-19T19:41:29.064Z,144.40
2023-01-19T19:43:58.312Z,148.82
2023-01-19T19:46:27.342Z,144.43
2023-01-19T19:48:55.945Z,147.75
2023-01-19T19:51:29.796Z,149.68
2023-01-19T19:54:00.982Z,153.38
2023-01-19T19:56:31.169Z,150.20
2023-01-19T19:58:59.899Z,148.00
2023-01-19T20:01:32.888Z,149.13
2023-01-19T20:04:11.089Z,147.45
2023-01-19T20:06:42.736Z,140.27
2023-01-19T20:09:13.131Z,140.23
2023-01-19T20:11:43.221Z,145.48
2023-01-19T20:14:14.061Z,142.50
2023-01-19T20:16:42.759Z,139.98
2023-01-19T20:19:11.386Z,135.35
2023-01-19T20:21:43.966Z,132.70
2023-01-19T20:24:31.243Z,134.25
2023-01-19T20:26:59.274Z,134.68
2023-01-19T20:29:27.697Z,138.90
2023-01-19T20:31:56.694Z,138.65
2023-01-19T20:34:30.446Z,131.52
2023-01-19T20:37:00.933Z,141.40
2023-01-19T20:39:33.532Z,135.15
2023-01-19T20:42:02.385Z,140.27
2023-01-19T20:44:31.338Z,140.63
2023-01-19T20:47:02.306Z,145.30
2023-01-19T20:49:31.125Z,150.85
2023-01-19T20:51:59.578Z,140.95
2023-01-19T20:54:30.598Z,142.93
2023-01-19T20:57:00.359Z,146.35
2023-01-19T20:59:29.068Z,138.65
2023-01-19T21:01:57.383Z,143.82
2023-01-19T21:04:26.442Z,135.20
2023-01-19T21:06:54.676Z,141.23
2023-01-19T21:09:24.201Z,142.40
2023-01-19T21:11:52.758Z,139.38
2023-01-19T21:14:21.206Z,143.15
2023-01-19T21:16:49.433Z,143.27
2023-01-19T21:19:19.688Z,142.05
2023-01-19T21:21:47.820Z,143.35
2023-01-19T21:24:17.253Z,139.65
2023-01-19T21:26:46.558Z,138.63
2023-01-19T21:29:15.024Z,140.38
2023-01-19T21:31:43.655Z,139.60
2023-01-19T21:34:14.531Z,135.88
2023-01-19T21:36:45.006Z,135.43
2023-01-19T21:39:14.858Z,140.05
2023-01-19T21:41:45.434Z,149.75
2023-01-19T21:44:15.257Z,143.27
2023-01-19T21:46:43.739Z,137.60
2023-01-19T21:49:19.231Z,132.95
2023-01-19T21:51:48.504Z,139.00
2023-01-19T21:54:19.609Z,136.60
2023-01-19T21:56:49.935Z,145.05
2023-01-19T21:59:20.346Z,139.35
2023-01-19T22:01:48.893Z,136.18
2023-01-19T22:04:17.307Z,139.10
2023-01-19T22:06:45.604Z,140.63
2023-01-19T22:09:15.083Z,131.45
2023-01-19T22:11:43.426Z,144.63
2023-01-19T22:14:11.811Z,141.55
2023-01-19T22:16:40.536Z,136.98
2023-01-19T22:19:14.733Z,143.57
2023-01-19T22:21:44.351Z,130.70
2023-01-19T22:24:13.280Z,131.07
2023-01-19T22:26:42.470Z,132.93
2023-01-19T22:29:12.893Z,136.13
2023-01-19T22:31:41.254Z,128.07
2023-01-19T22:34:11.203Z,138.43
2023-01-19T22:36:40.226Z,137.02
2023-01-19T22:39:10.820Z,130.93
2023-01-19T22:41:48.378Z,133.75
2023-01-19T22:44:21.378Z,140.43
2023-01-19T22:46:52.597Z,135.85
2023-01-19T22:49:21.896Z,138.90
2023-01-19T22:51:50.006Z,144.30
2023-01-19T22:54:18.193Z,137.25
2023-01-19T22:56:46.374Z,139.65
2023-01-19T22:59:14.583Z,144.25
2023-01-19T23:01:44.336Z,141.63
2023-01-19T23:04:15.264Z,146.05
2023-01-19T23:06:43.741Z,140.90
2023-01-19T23:09:13.924Z,134.45
2023-01-19T23:11:51.629Z,130.88
2023-01-19T23:14:23.070Z,139.63
2023-01-19T23:16:51.643Z,139.88
2023-01-19T23:19:20.077Z,128.40
2023-01-19T23:21:52.851Z,134.10
2023-01-19T23:24:21.322Z,139.90
2023-01-19T23:26:50.373Z,145.73
2023-01-19T23:29:19.968Z,144.35
2023-01-19T23:31:49.502Z,143.98
2023-01-19T23:34:17.852Z,144.88
2023-01-19T23:36:46.137Z,147.45
2023-01-19T23:39:20.227Z,143.73
2023-01-19T23:41:49.631Z,141.23
2023-01-19T23:44:18.574Z,134.98
2023-01-19T23:46:46.708Z,141.30
2023-01-19T23:49:15.041Z,140.65
2023-01-19T23:51:43.262Z,137.35
2023-01-19T23:54:12.500Z,144.25
2023-01-19T23:56:40.852Z,139.82
2023-01-19T23:59:11.527Z,142.30
